x

South Brooks (46132) Wave Buoy

6:00 - Sun 25th Sep 2016 All times are PDT. -7 hours from GMT.

  • Sig Wave height 9.2ft
  • Peak Period 7s
  • Wind
    22mph, 27mph gusts
  • Sea Temp 56°f
  • Air Temp 56°f
  • Sea Pressure 1024.3mb
  • South Brooks
  • South Brooks

More Historic Weather Station data

Upgrade to MSW Pro to gain access to the past 30 days of data for over 8000 Wavebouys and Weather Stations around the globe.

Join Pro

Comparision Forecast

View Surf forecast
   
dim. 09/25 6:00 9ft 7s 22 27 mph 1024.3mb 56f 56f
5:00 9ft 9s 25 31 mph 1024.8mb 56f 56f
4:00 9ft 6s 22 29 mph 1025.3mb 56f 56f
3:00 9.5ft 7s 22 29 mph 1025.7mb 56f 56f
2:00 10.5ft 10s 27 31 mph 1025.7mb 55f 55f
1:00 11ft 7s 25 31 mph 1025.8mb 55f 55f
12:00 11ft 10s 25 31 mph 1025.8mb 55f 55f
11:00 11ft 7s 27 36 mph 1025.4mb 55f 55f
10:00 10ft 11s 27 34 mph 1025.2mb 55f 55f
9:00 11ft 7s 27 34 mph 1024.8mb 55f 55f
8:00 11ft 8s 29 34 mph 1024.2mb 56f 55f
7:00 11.5ft 8s 29 36 mph 1023.7mb 56f 55f
6:00 11ft 7s 29 34 mph 1023.9mb 55f 55f
5:00 11ft 7s 27 36 mph 1023.9mb 55f 55f
4:00 11.5ft 8s 29 36 mph 1023.6mb 55f 55f
3:00 12ft 8s 31 40 mph 1023.2mb 55f 55f
2:00 13ft 8s 31 38 mph 1023.3mb 55f 55f
1:00 12.5ft 8s 31 40 mph 1022.9mb 55f 55f
12:00 13ft 7s 34 40 mph 1022mb 56f 55f
sam. 09/24 11:00 12ft 8s 34 40 mph 1021.9mb 55f 55f
10:00 12.5ft 7s 36 43 mph 1021.1mb 55f 55f
9:00 11.5ft 7s 34 43 mph 1021.3mb 56f 55f
8:00 11ft 7s 34 40 mph 1020.8mb 55f 55f
7:00 10.5ft 6s 34 40 mph 1020.8mb 55f 55f
6:00 9ft 6s 31 40 mph 1021.5mb 55f 55f
5:00 8ft 6s 31 36 mph 1022mb 56f 56f
4:00 7ft 6s 27 34 mph 1022.6mb 56f 55f
3:00 7.5ft 5s 27 34 mph 1022.8mb 56f 56f
2:00 7ft 11s 25 31 mph 1023.3mb 56f 56f
1:00 7.5ft 11s 27 31 mph 1023.4mb 56f 56f
12:00 8ft 11s 25 31 mph 1024.3mb 56f 56f
11:00 8ft 10s 22 27 mph 1024.4mb 56f 56f
10:00 8.5ft 10s 18 22 mph 1024.8mb 56f 56f
9:00 8.5ft 10s 13 16 mph 1025.5mb 56f 56f
8:00 8.5ft 10s 11 13 mph 1025.7mb 56f 56f
7:00 8ft 11s 9 11 mph 1024.8mb 56f 56f
6:00 8ft 11s 11 13 mph 1024.3mb 56f 56f
5:00 8ft 11s 7 9 mph 1024.4mb 56f 57f
4:00 7ft 11s 7 9 mph 1024.4mb 56f 57f
3:00 7.5ft 12s 2 4 mph 1024.2mb 56f 58f
2:00 7ft 12s 7
mph
1024.1mb 56f 57f
1:00 8ft 12s 2 4 mph 1024.3mb 56f 57f
12:00 8ft 12s 2 4 mph 1023.4mb 56f 57f
ven. 09/23 11:00 9ft 12s 4
mph
1022.8mb 56f 58f
10:00 9.5ft 12s 2 4 mph 1021.9mb 56f 58f
9:00 11ft 11s 4
mph
1021.9mb 56f 58f
8:00 12.5ft 12s 7 9 mph 1021.2mb 56f 58f
7:00 12ft 11s 7 9 mph 1020.3mb 56f 58f
6:00 12.5ft 11s 4 7 mph 1019.4mb 56f 58f
5:00 12ft 11s 7 9 mph 1018.8mb 56f 58f
4:00 12.5ft 11s 9 11 mph 1017.9mb 57f 59f
3:00 12ft 11s 13 18 mph 1017.3mb 56f 59f
2:00 11.5ft 12s 11 16 mph 1016.6mb 56f 58f
1:00 11.5ft 8s 13 16 mph 1015.8mb 56f 58f
12:00 11ft 12s 13 16 mph 1015.1mb 56f 57f
11:00  -   -  16
mph
1014mb 56f 57f
10:00 11ft 8s 11 13 mph 1013.1mb 56f 55f
9:00 12ft 8s 11 16 mph 1011.5mb 56f 56f
8:00 14ft 8s 18 25 mph 1009.6mb 56f 55f
7:00 15ft 8s 29 36 mph 1007.8mb 56f 55f
6:00 14ft 8s 29 40 mph 1007.6mb 56f 55f
5:00 15.5ft 8s 31 40 mph 1007.3mb 56f 55f
4:00 15.5ft 8s 31 47 mph 1006.7mb 56f 55f
3:00 15ft 8s 34 40 mph 1006.8mb 56f 56f
2:00 14.5ft 7s 31 45 mph 1007.7mb 57f 56f
1:00 13ft 7s 31 40 mph 1008mb 56f 56f
12:00 12ft 7s 31 43 mph 1008.2mb 57f 56f
jeu. 09/22 11:00 11ft 7s 31 40 mph 1008.5mb 57f 56f
10:00 9ft 6s 31 40 mph 1009.2mb 57f 56f
9:00 8ft 5s 31 40 mph 1009.6mb 56f 56f
8:00 6ft 5s 29 36 mph 1010.2mb 57f 56f
7:00 5ft 5s 27 31 mph 1011.4mb 57f 56f
6:00 4ft 4s 27 31 mph 1011.9mb 56f 56f
5:00 3ft 4s 22 29 mph 1013.2mb 56f 56f
4:00 2.5ft 15s 20 25 mph 1014.1mb 56f 56f
3:00 2.5ft 15s 18 22 mph 1014.7mb 56f 56f
2:00 2.5ft 16s 16 20 mph 1015.1mb 56f 56f
1:00 2.5ft 8s 16 18 mph 1015.8mb 56f 55f
12:00 2.5ft 17s 11 13 mph 1016mb 56f 55f
11:00 2.5ft 8s 7
mph
1016.2mb 56f 55f
10:00 2.5ft 8s 4 7 mph 1015.6mb 56f 55f
9:00 3ft 8s 4
mph
1015.8mb 56f 55f
8:00 3.5ft 8s 11 13 mph 1015.8mb 55f 54f
7:00 3.5ft 9s 11 13 mph 1015.1mb 55f 53f
6:00 4ft 8s 16 20 mph 1015mb 55f 53f
5:00 4.5ft 5s 18 22 mph 1015.4mb 56f 52f
4:00 5ft 5s 20 25 mph 1015.3mb 55f 53f
3:00  -   -  22
mph
1015.5mb - 53f